sensor_id;sensor_type;location;lat;lon;timestamp;pressure;altitude;pressure_sealevel;temperature;humidity
6136;BME280;24008;42.664;23.372;2022-09-17T00:00:36;93878.38;;;18.96;88.96
6136;BME280;24008;42.664;23.372;2022-09-17T00:03:03;93852.63;;;19.01;88.59
6136;BME280;24008;42.664;23.372;2022-09-17T00:05:31;93625.47;;;17.74;87.58
6136;BME280;24008;42.664;23.372;2022-09-17T00:07:58;93935.63;;;19.56;88.31
6136;BME280;24008;42.664;23.372;2022-09-17T00:10:24;93938.75;;;19.65;87.73
6136;BME280;24008;42.664;23.372;2022-09-17T00:12:51;93933.16;;;19.68;87.50
6136;BME280;24008;42.664;23.372;2022-09-17T00:15:20;93918.72;;;19.72;86.98
6136;BME280;24008;42.664;23.372;2022-09-17T00:17:46;93920.19;;;19.68;86.43
6136;BME280;24008;42.664;23.372;2022-09-17T00:20:13;93909.66;;;19.63;86.25
6136;BME280;24008;42.664;23.372;2022-09-17T00:22:41;93832.41;;;19.10;86.42
6136;BME280;24008;42.664;23.372;2022-09-17T00:25:08;93880.38;;;19.37;86.57
6136;BME280;24008;42.664;23.372;2022-09-17T00:27:34;93839.69;;;19.01;87.32
6136;BME280;24008;42.664;23.372;2022-09-17T00:30:02;93902.03;;;19.25;89.22
6136;BME280;24008;42.664;23.372;2022-09-17T00:32:30;93906.13;;;19.32;89.56
6136;BME280;24008;42.664;23.372;2022-09-17T00:34:57;93909.03;;;19.42;89.36
6136;BME280;24008;42.664;23.372;2022-09-17T00:37:24;93860.66;;;19.18;88.90
6136;BME280;24008;42.664;23.372;2022-09-17T00:39:50;93885.41;;;19.32;88.41
6136;BME280;24008;42.664;23.372;2022-09-17T00:42:18;93817.00;;;18.97;87.96
6136;BME280;24008;42.664;23.372;2022-09-17T00:44:47;93932.81;;;19.58;88.19
6136;BME280;24008;42.664;23.372;2022-09-17T00:47:28;93920.19;;;19.68;87.88
6136;BME280;24008;42.664;23.372;2022-09-17T00:50:00;93890.44;;;19.46;87.30
6136;BME280;24008;42.664;23.372;2022-09-17T00:52:30;93902.28;;;19.41;87.16
6136;BME280;24008;42.664;23.372;2022-09-17T00:55:04;93927.50;;;19.71;86.59
6136;BME280;24008;42.664;23.372;2022-09-17T00:57:31;93899.59;;;19.48;86.13
6136;BME280;24008;42.664;23.372;2022-09-17T00:59:58;93928.72;;;19.68;86.10
6136;BME280;24008;42.664;23.372;2022-09-17T01:02:26;93916.38;;;19.46;86.28
6136;BME280;24008;42.664;23.372;2022-09-17T01:04:53;93947.38;;;19.59;86.37
6136;BME280;24008;42.664;23.372;2022-09-17T01:07:40;93925.72;;;19.28;86.98
6136;BME280;24008;42.664;23.372;2022-09-17T01:10:20;93955.69;;;19.42;87.16
6136;BME280;24008;42.664;23.372;2022-09-17T01:13:05;93915.97;;;19.24;88.11
6136;BME280;24008;42.664;23.372;2022-09-17T01:15:39;93918.97;;;18.78;92.14
6136;BME280;24008;42.664;23.372;2022-09-17T01:18:20;93871.88;;;18.62;91.93
6136;BME280;24008;42.664;23.372;2022-09-17T01:21:17;93821.06;;;18.68;91.77
6136;BME280;24008;42.664;23.372;2022-09-17T01:27:18;93895.34;;;19.17;91.01
6136;BME280;24008;42.664;23.372;2022-09-17T01:30:04;93822.97;;;18.48;89.97
6136;BME280;24008;42.664;23.372;2022-09-17T01:32:42;93820.13;;;18.62;89.74
6136;BME280;24008;42.664;23.372;2022-09-17T01:35:17;93753.50;;;18.02;89.78
6136;BME280;24008;42.664;23.372;2022-09-17T01:37:51;93920.97;;;19.25;90.17
6136;BME280;24008;42.664;23.372;2022-09-17T01:40:25;93890.41;;;19.09;89.85
6136;BME280;24008;42.664;23.372;2022-09-17T01:42:58;93852.53;;;18.90;90.13
6136;BME280;24008;42.664;23.372;2022-09-17T01:45:34;93907.00;;;19.26;90.16
6136;BME280;24008;42.664;23.372;2022-09-17T01:48:07;93880.22;;;19.14;89.61
6136;BME280;24008;42.664;23.372;2022-09-17T01:50:39;93887.00;;;19.33;89.48
6136;BME280;24008;42.664;23.372;2022-09-17T01:53:09;93873.44;;;19.13;90.52
6136;BME280;24008;42.664;23.372;2022-09-17T01:55:38;93822.75;;;18.81;90.22
6136;BME280;24008;42.664;23.372;2022-09-17T01:58:11;93844.00;;;18.64;90.88
6136;BME280;24008;42.664;23.372;2022-09-17T02:00:41;93656.44;;;17.43;90.86
6136;BME280;24008;42.664;23.372;2022-09-17T02:03:16;93892.69;;;18.99;90.12
6136;BME280;24008;42.664;23.372;2022-09-17T02:05:48;93896.53;;;19.15;89.63
6136;BME280;24008;42.664;23.372;2022-09-17T02:08:18;93832.09;;;18.82;89.66
6136;BME280;24008;42.664;23.372;2022-09-17T02:10:49;93809.59;;;18.82;89.57
6136;BME280;24008;42.664;23.372;2022-09-17T02:13:21;93840.63;;;19.07;88.95
6136;BME280;24008;42.664;23.372;2022-09-17T02:15:53;93842.19;;;19.08;89.66
6136;BME280;24008;42.664;23.372;2022-09-17T02:18:26;93838.59;;;19.09;89.75
6136;BME280;24008;42.664;23.372;2022-09-17T02:21:01;93784.34;;;18.96;89.54
6136;BME280;24008;42.664;23.372;2022-09-17T02:23:37;93639.56;;;18.40;89.18
6136;BME280;24008;42.664;23.372;2022-09-17T02:26:09;93799.63;;;19.22;88.13
6136;BME280;24008;42.664;23.372;2022-09-17T02:28:40;93741.63;;;18.68;87.73
6136;BME280;24008;42.664;23.372;2022-09-17T02:31:09;93755.38;;;18.87;88.76
6136;BME280;24008;42.664;23.372;2022-09-17T02:33:39;93719.75;;;18.64;87.31
6136;BME280;24008;42.664;23.372;2022-09-17T02:36:07;93723.38;;;18.82;85.57
6136;BME280;24008;42.664;23.372;2022-09-17T02:38:34;93780.03;;;18.90;84.57
6136;BME280;24008;42.664;23.372;2022-09-17T02:41:07;93783.94;;;18.99;85.53
6136;BME280;24008;42.664;23.372;2022-09-17T02:43:41;93812.28;;;19.12;86.57
6136;BME280;24008;42.664;23.372;2022-09-17T02:46:24;93790.81;;;18.87;87.48
6136;BME280;24008;42.664;23.372;2022-09-17T02:51:56;93795.75;;;19.13;86.63
6136;BME280;24008;42.664;23.372;2022-09-17T02:54:28;93792.16;;;19.14;86.52
6136;BME280;24008;42.664;23.372;2022-09-17T02:57:05;93804.88;;;19.16;87.07
6136;BME280;24008;42.664;23.372;2022-09-17T02:59:37;93815.16;;;19.22;86.67
6136;BME280;24008;42.664;23.372;2022-09-17T03:02:29;93778.59;;;19.12;87.13
6136;BME280;24008;42.664;23.372;2022-09-17T03:05:02;93766.94;;;19.21;87.29
6136;BME280;24008;42.664;23.372;2022-09-17T03:07:29;93768.53;;;19.22;86.87
6136;BME280;24008;42.664;23.372;2022-09-17T03:09:57;93768.53;;;19.22;86.74
6136;BME280;24008;42.664;23.372;2022-09-17T03:12:24;93724.09;;;19.07;86.70
6136;BME280;24008;42.664;23.372;2022-09-17T03:14:51;93760.34;;;19.25;86.48
6136;BME280;24008;42.664;23.372;2022-09-17T03:17:18;93789.19;;;19.29;86.17
6136;BME280;24008;42.664;23.372;2022-09-17T03:19:44;93771.84;;;19.29;86.30
6136;BME280;24008;42.664;23.372;2022-09-17T03:22:13;93759.22;;;19.33;86.35
6136;BME280;24008;42.664;23.372;2022-09-17T03:24:39;93642.19;;;18.58;86.02
6136;BME280;24008;42.664;23.372;2022-09-17T03:27:06;93768.03;;;19.32;85.88
6136;BME280;24008;42.664;23.372;2022-09-17T03:29:33;93761.75;;;19.21;85.66
6136;BME280;24008;42.664;23.372;2022-09-17T03:32:00;93695.44;;;18.84;86.12
6136;BME280;24008;42.664;23.372;2022-09-17T03:34:27;93757.19;;;19.05;84.94
6136;BME280;24008;42.664;23.372;2022-09-17T03:36:54;93624.38;;;18.25;85.41
6136;BME280;24008;42.664;23.372;2022-09-17T03:39:22;93747.22;;;19.20;85.86
6136;BME280;24008;42.664;23.372;2022-09-17T03:41:49;93753.78;;;19.23;86.07
6136;BME280;24008;42.664;23.372;2022-09-17T03:44:16;93743.41;;;19.23;86.05
6136;BME280;24008;42.664;23.372;2022-09-17T03:46:43;93715.28;;;19.08;86.45
6136;BME280;24008;42.664;23.372;2022-09-17T03:49:10;93668.28;;;18.75;86.43
6136;BME280;24008;42.664;23.372;2022-09-17T03:51:37;93656.88;;;18.82;86.31
6136;BME280;24008;42.664;23.372;2022-09-17T03:54:04;93728.53;;;19.18;86.39
6136;BME280;24008;42.664;23.372;2022-09-17T03:56:32;93580.63;;;18.23;86.89
6136;BME280;24008;42.664;23.372;2022-09-17T03:59:00;93745.09;;;19.17;87.02
6136;BME280;24008;42.664;23.372;2022-09-17T04:01:27;93477.81;;;17.46;87.15
6136;BME280;24008;42.664;23.372;2022-09-17T04:03:54;93718.31;;;18.87;87.67
6136;BME280;24008;42.664;23.372;2022-09-17T04:06:21;93684.94;;;18.60;85.97
6136;BME280;24008;42.664;23.372;2022-09-17T04:08:48;93618.16;;;18.32;86.31
6136;BME280;24008;42.664;23.372;2022-09-17T04:11:15;93761.06;;;19.14;86.90
6136;BME280;24008;42.664;23.372;2022-09-17T04:13:44;93770.53;;;19.20;87.55
6136;BME280;24008;42.664;23.372;2022-09-17T04:16:10;93731.88;;;19.07;87.26
6136;BME280;24008;42.664;23.372;2022-09-17T04:18:37;93750.84;;;19.19;87.64
6136;BME280;24008;42.664;23.372;2022-09-17T04:21:04;93782.34;;;19.34;86.95
6136;BME280;24008;42.664;23.372;2022-09-17T04:23:31;93761.75;;;19.21;86.93
6136;BME280;24008;42.664;23.372;2022-09-17T04:25:58;93833.63;;;19.51;86.56
6136;BME280;24008;42.664;23.372;2022-09-17T04:28:25;93830.03;;;19.52;86.56
6136;BME280;24008;42.664;23.372;2022-09-17T04:30:53;93837.13;;;19.56;86.33
6136;BME280;24008;42.664;23.372;2022-09-17T04:33:20;93851.03;;;19.62;86.13
6136;BME280;24008;42.664;23.372;2022-09-17T04:35:47;93852.19;;;19.66;86.01
6136;BME280;24008;42.664;23.372;2022-09-17T04:38:14;93847.94;;;19.71;85.78
6136;BME280;24008;42.664;23.372;2022-09-17T04:40:43;93822.94;;;19.40;86.03
6136;BME280;24008;42.664;23.372;2022-09-17T04:43:11;93786.84;;;18.84;86.44
6136;BME280;24008;42.664;23.372;2022-09-17T04:45:38;93884.88;;;19.67;86.41
6136;BME280;24008;42.664;23.372;2022-09-17T04:48:06;93892.00;;;19.71;86.51
6136;BME280;24008;42.664;23.372;2022-09-17T04:50:33;93861.34;;;19.50;86.01
6136;BME280;24008;42.664;23.372;2022-09-17T04:53:00;93904.31;;;19.76;85.98
6136;BME280;24008;42.664;23.372;2022-09-17T04:55:27;93913.13;;;19.75;85.78
6136;BME280;24008;42.664;23.372;2022-09-17T04:57:54;93925.50;;;19.73;85.59
6136;BME280;24008;42.664;23.372;2022-09-17T05:00:21;93914.53;;;19.71;86.18
6136;BME280;24008;42.664;23.372;2022-09-17T05:02:50;93918.72;;;19.72;86.70
6136;BME280;24008;42.664;23.372;2022-09-17T05:05:18;93917.28;;;19.76;86.34
6136;BME280;24008;42.664;23.372;2022-09-17T05:07:45;93902.50;;;19.58;86.51
6136;BME280;24008;42.664;23.372;2022-09-17T05:10:14;93916.72;;;19.74;86.96
6136;BME280;24008;42.664;23.372;2022-09-17T05:12:46;93877.84;;;19.56;86.99
6136;BME280;24008;42.664;23.372;2022-09-17T05:15:13;93802.94;;;19.11;87.24
6136;BME280;24008;42.664;23.372;2022-09-17T05:17:40;93812.34;;;19.24;87.21
6136;BME280;24008;42.664;23.372;2022-09-17T05:20:07;93865.78;;;19.61;87.28
6136;BME280;24008;42.664;23.372;2022-09-17T05:22:39;93886.88;;;19.83;87.68
6136;BME280;24008;42.664;23.372;2022-09-17T05:25:07;93872.91;;;19.84;87.57
6136;BME280;24008;42.664;23.372;2022-09-17T05:27:34;93866.34;;;19.82;87.67
6136;BME280;24008;42.664;23.372;2022-09-17T05:30:00;93861.09;;;19.88;87.72
6136;BME280;24008;42.664;23.372;2022-09-17T05:32:27;93840.81;;;19.67;87.62
6136;BME280;24008;42.664;23.372;2022-09-17T05:34:54;93860.09;;;19.71;87.97
6136;BME280;24008;42.664;23.372;2022-09-17T05:37:21;93869.81;;;19.75;87.47
6136;BME280;24008;42.664;23.372;2022-09-17T05:39:50;93887.19;;;19.75;87.28
6136;BME280;24008;42.664;23.372;2022-09-17T05:42:16;93892.66;;;19.49;89.44
6136;BME280;24008;42.664;23.372;2022-09-17T05:44:43;93894.91;;;19.38;90.99
6136;BME280;24008;42.664;23.372;2022-09-17T05:47:10;93628.34;;;17.53;92.50
6136;BME280;24008;42.664;23.372;2022-09-17T05:49:37;93895.34;;;19.17;92.46
6136;BME280;24008;42.664;23.372;2022-09-17T05:52:04;93902.03;;;19.25;92.47
6136;BME280;24008;42.664;23.372;2022-09-17T05:54:30;93901.91;;;19.38;92.20
6136;BME280;24008;42.664;23.372;2022-09-17T05:56:59;93901.81;;;19.44;91.66
6136;BME280;24008;42.664;23.372;2022-09-17T05:59:26;93860.53;;;19.31;91.31
6136;BME280;24008;42.664;23.372;2022-09-17T06:01:53;93606.34;;;17.75;90.82
6136;BME280;24008;42.664;23.372;2022-09-17T06:04:20;93874.22;;;19.57;90.62
6136;BME280;24008;42.664;23.372;2022-09-17T06:06:47;93883.06;;;19.49;90.65
6136;BME280;24008;42.664;23.372;2022-09-17T06:09:16;93707.78;;;18.45;90.10
6136;BME280;24008;42.664;23.372;2022-09-17T06:11:43;93829.94;;;19.40;89.34
6136;BME280;24008;42.664;23.372;2022-09-17T06:14:11;93825.03;;;19.32;89.47
6136;BME280;24008;42.664;23.372;2022-09-17T06:16:38;93855.41;;;19.25;90.72
6136;BME280;24008;42.664;23.372;2022-09-17T06:19:05;93778.00;;;18.49;91.32
6136;BME280;24008;42.664;23.372;2022-09-17T06:21:32;93919.84;;;19.39;91.86
6136;BME280;24008;42.664;23.372;2022-09-17T06:23:59;93929.56;;;19.44;91.15
6136;BME280;24008;42.664;23.372;2022-09-17T06:26:26;93950.97;;;19.33;92.96
6136;BME280;24008;42.664;23.372;2022-09-17T06:28:53;93965.97;;;19.31;93.48
6136;BME280;24008;42.664;23.372;2022-09-17T06:31:21;93963.00;;;19.27;93.81
6136;BME280;24008;42.664;23.372;2022-09-17T06:33:48;93972.50;;;19.33;93.78
6136;BME280;24008;42.664;23.372;2022-09-17T06:36:15;93968.84;;;19.41;93.63
6136;BME280;24008;42.664;23.372;2022-09-17T06:38:42;93995.50;;;19.48;93.23
6136;BME280;24008;42.664;23.372;2022-09-17T06:41:09;93990.84;;;19.57;93.26
6136;BME280;24008;42.664;23.372;2022-09-17T06:43:36;94000.00;;;19.59;93.08
6136;BME280;24008;42.664;23.372;2022-09-17T06:46:04;93977.47;;;19.60;93.28
6136;BME280;24008;42.664;23.372;2022-09-17T06:48:36;93956.69;;;19.66;93.12
6136;BME280;24008;42.664;23.372;2022-09-17T06:51:04;93927.09;;;19.74;92.76
6136;BME280;24008;42.664;23.372;2022-09-17T06:53:32;93936.03;;;19.78;92.31
6136;BME280;24008;42.664;23.372;2022-09-17T06:55:59;93940.53;;;19.83;92.53
6136;BME280;24008;42.664;23.372;2022-09-17T06:58:28;93905.63;;;19.67;91.87
6136;BME280;24008;42.664;23.372;2022-09-17T07:00:57;93928.66;;;19.93;91.80
6136;BME280;24008;42.664;23.372;2022-09-17T07:03:25;93933.91;;;20.05;91.38
6136;BME280;24008;42.664;23.372;2022-09-17T07:05:53;93731.47;;;18.85;90.08
6136;BME280;24008;42.664;23.372;2022-09-17T07:08:20;93921.56;;;20.19;90.12
6136;BME280;24008;42.664;23.372;2022-09-17T07:10:47;93899.00;;;20.19;90.34
6136;BME280;24008;42.664;23.372;2022-09-17T07:13:15;93885.50;;;20.29;89.95
6136;BME280;24008;42.664;23.372;2022-09-17T07:15:42;93625.28;;;18.55;89.22
6136;BME280;24008;42.664;23.372;2022-09-17T07:18:09;93877.22;;;20.38;89.52
6136;BME280;24008;42.664;23.372;2022-09-17T07:20:36;93861.00;;;20.66;89.82
6136;BME280;24008;42.664;23.372;2022-09-17T07:23:05;93828.88;;;21.37;88.78
6136;BME280;24008;42.664;23.372;2022-09-17T07:25:31;93852.69;;;22.09;82.63
6136;BME280;24008;42.664;23.372;2022-09-17T07:27:58;93860.97;;;22.68;79.35
6136;BME280;24008;42.664;23.372;2022-09-17T07:30:25;93867.09;;;23.84;77.12
6136;BME280;24008;42.664;23.372;2022-09-17T07:32:52;93652.28;;;24.11;66.92
6136;BME280;24008;42.664;23.372;2022-09-17T07:35:19;93825.22;;;26.48;61.80
6136;BME280;24008;42.664;23.372;2022-09-17T07:37:46;93863.28;;;28.12;58.13
6136;BME280;24008;42.664;23.372;2022-09-17T07:40:14;93756.44;;;27.92;52.89
6136;BME280;24008;42.664;23.372;2022-09-17T07:42:41;93733.50;;;28.76;50.82
6136;BME280;24008;42.664;23.372;2022-09-17T07:45:08;93793.06;;;29.72;47.31
6136;BME280;24008;42.664;23.372;2022-09-17T07:47:39;93702.38;;;28.88;47.01
6136;BME280;24008;42.664;23.372;2022-09-17T07:50:07;93859.75;;;30.34;47.12
6136;BME280;24008;42.664;23.372;2022-09-17T07:52:34;93863.28;;;30.29;45.64
6136;BME280;24008;42.664;23.372;2022-09-17T07:55:01;93855.69;;;29.80;46.21
6136;BME280;24008;42.664;23.372;2022-09-17T07:57:29;93850.00;;;29.15;47.82
6136;BME280;24008;42.664;23.372;2022-09-17T07:59:56;93846.28;;;28.48;49.31
6136;BME280;24008;42.664;23.372;2022-09-17T08:02:22;93847.63;;;27.81;50.50
6136;BME280;24008;42.664;23.372;2022-09-17T08:04:49;93849.84;;;26.47;53.25
6136;BME280;24008;42.664;23.372;2022-09-17T08:07:16;93852.34;;;26.12;55.91
6136;BME280;24008;42.664;23.372;2022-09-17T08:09:43;93816.88;;;25.74;56.51
6136;BME280;24008;42.664;23.372;2022-09-17T08:12:10;93845.84;;;25.57;57.47
6136;BME280;24008;42.664;23.372;2022-09-17T08:14:38;93740.97;;;24.32;59.48
6136;BME280;24008;42.664;23.372;2022-09-17T08:17:06;93803.41;;;24.66;60.74
6136;BME280;24008;42.664;23.372;2022-09-17T08:19:33;93726.84;;;24.01;61.24
6136;BME280;24008;42.664;23.372;2022-09-17T08:21:59;93761.84;;;24.05;61.76
6136;BME280;24008;42.664;23.372;2022-09-17T08:24:26;93829.50;;;24.07;63.42
6136;BME280;24008;42.664;23.372;2022-09-17T08:26:53;93825.63;;;23.88;64.33
6136;BME280;24008;42.664;23.372;2022-09-17T08:29:20;93827.50;;;24.14;64.32
6136;BME280;24008;42.664;23.372;2022-09-17T08:31:48;93820.44;;;24.41;63.76
6136;BME280;24008;42.664;23.372;2022-09-17T08:34:15;93815.53;;;24.45;63.05
6136;BME280;24008;42.664;23.372;2022-09-17T08:36:42;93761.06;;;24.05;62.80
6136;BME280;24008;42.664;23.372;2022-09-17T08:39:09;93618.19;;;23.10;62.32
6136;BME280;24008;42.664;23.372;2022-09-17T08:41:47;93748.28;;;23.77;62.78
6136;BME280;24008;42.664;23.372;2022-09-17T08:44:23;93833.50;;;24.41;62.47
6136;BME280;24008;42.664;23.372;2022-09-17T08:46:58;93815.75;;;24.44;62.92
6136;BME280;24008;42.664;23.372;2022-09-17T08:49:31;93792.97;;;24.34;63.37
6136;BME280;24008;42.664;23.372;2022-09-17T08:52:28;93786.06;;;24.50;61.60
6136;BME280;24008;42.664;23.372;2022-09-17T08:55:05;93718.81;;;24.08;61.18
6136;BME280;24008;42.664;23.372;2022-09-17T08:57:41;93781.97;;;24.32;60.95
6136;BME280;24008;42.664;23.372;2022-09-17T09:00:15;93767.78;;;23.96;61.10
6136;BME280;24008;42.664;23.372;2022-09-17T09:02:55;93821.59;;;24.24;61.97
6136;BME280;24008;42.664;23.372;2022-09-17T09:05:27;93728.22;;;23.55;62.29
6136;BME280;24008;42.664;23.372;2022-09-17T09:08:02;93814.84;;;24.06;62.60
6136;BME280;24008;42.664;23.372;2022-09-17T09:10:36;93827.88;;;24.01;62.89
6136;BME280;24008;42.664;23.372;2022-09-17T09:13:11;93824.84;;;23.87;62.94
6136;BME280;24008;42.664;23.372;2022-09-17T09:15:44;93841.22;;;23.83;63.65
6136;BME280;24008;42.664;23.372;2022-09-17T09:18:18;93846.81;;;23.69;64.67
6136;BME280;24008;42.664;23.372;2022-09-17T09:20:49;93843.38;;;23.47;65.81
6136;BME280;24008;42.664;23.372;2022-09-17T09:23:20;93843.31;;;23.42;65.65
6136;BME280;24008;42.664;23.372;2022-09-17T09:25:59;93710.09;;;22.45;66.80
6136;BME280;24008;42.664;23.372;2022-09-17T09:28:41;93583.69;;;21.48;67.24
6136;BME280;24008;42.664;23.372;2022-09-17T09:31:25;93789.53;;;22.47;68.29
6136;BME280;24008;42.664;23.372;2022-09-17T09:33:54;93806.34;;;22.73;69.61
6136;BME280;24008;42.664;23.372;2022-09-17T09:36:27;93822.94;;;22.67;69.63
6136;BME280;24008;42.664;23.372;2022-09-17T09:38:58;93894.22;;;22.94;70.88
6136;BME280;24008;42.664;23.372;2022-09-17T09:41:31;93878.72;;;22.71;71.72
6136;BME280;24008;42.664;23.372;2022-09-17T09:44:03;93840.59;;;22.48;72.60
6136;BME280;24008;42.664;23.372;2022-09-17T09:49:33;93769.09;;;21.94;74.31
6136;BME280;24008;42.664;23.372;2022-09-17T09:52:17;93913.81;;;22.80;74.73
6136;BME280;24008;42.664;23.372;2022-09-17T09:54:55;93832.66;;;22.26;75.36
6136;BME280;24008;42.664;23.372;2022-09-17T09:57:33;93897.00;;;22.59;76.43
6136;BME280;24008;42.664;23.372;2022-09-17T10:00:30;93861.81;;;22.12;77.61
6136;BME280;24008;42.664;23.372;2022-09-17T10:03:04;93924.88;;;22.59;78.25
6136;BME280;24008;42.664;23.372;2022-09-17T10:05:36;93842.84;;;22.00;78.57
6136;BME280;24008;42.664;23.372;2022-09-17T10:08:10;93895.97;;;22.44;78.36
6136;BME280;24008;42.664;23.372;2022-09-17T10:10:52;93852.47;;;22.27;78.67
6136;BME280;24008;42.664;23.372;2022-09-17T10:13:20;93740.22;;;21.79;78.77
6136;BME280;24008;42.664;23.372;2022-09-17T10:15:47;93679.66;;;21.38;78.54
6136;BME280;24008;42.664;23.372;2022-09-17T10:18:18;93776.72;;;21.84;78.66
6136;BME280;24008;42.664;23.372;2022-09-17T10:20:51;93820.13;;;22.23;78.78
6136;BME280;24008;42.664;23.372;2022-09-17T10:23:18;93201.13;;;17.95;77.56
6136;BME280;24008;42.664;23.372;2022-09-17T10:25:46;93794.09;;;21.95;79.33
6136;BME280;24008;42.664;23.372;2022-09-17T10:28:27;93746.59;;;21.31;80.91
6136;BME280;24008;42.664;23.372;2022-09-17T10:30:58;93754.53;;;21.25;81.92
6136;BME280;24008;42.664;23.372;2022-09-17T10:33:28;93744.59;;;21.22;82.31
6136;BME280;24008;42.664;23.372;2022-09-17T10:36:00;93784.09;;;21.47;82.31
6136;BME280;24008;42.664;23.372;2022-09-17T10:38:30;93758.16;;;21.12;82.88
6136;BME280;24008;42.664;23.372;2022-09-17T10:41:12;93728.13;;;20.93;82.02
6136;BME280;24008;42.664;23.372;2022-09-17T10:43:40;93759.75;;;20.90;83.60
6136;BME280;24008;42.664;23.372;2022-09-17T10:46:09;93784.13;;;21.12;84.45
6136;BME280;24008;42.664;23.372;2022-09-17T10:48:41;93755.56;;;21.24;84.27
6136;BME280;24008;42.664;23.372;2022-09-17T10:51:10;93743.38;;;20.89;85.50
6136;BME280;24008;42.664;23.372;2022-09-17T10:54:07;93744.28;;;20.95;85.47
6136;BME280;24008;42.664;23.372;2022-09-17T10:56:43;93732.88;;;20.84;84.68
6136;BME280;24008;42.664;23.372;2022-09-17T10:59:39;93715.50;;;20.84;84.54
6136;BME280;24008;42.664;23.372;2022-09-17T11:02:39;93679.25;;;20.66;83.28
6136;BME280;24008;42.664;23.372;2022-09-17T11:05:28;93658.66;;;20.48;83.80
6136;BME280;24008;42.664;23.372;2022-09-17T11:08:06;93731.72;;;20.92;83.76
6136;BME280;24008;42.664;23.372;2022-09-17T11:10:40;93740.41;;;21.09;84.90
6136;BME280;24008;42.664;23.372;2022-09-17T11:13:21;93567.72;;;20.08;85.32
6136;BME280;24008;42.664;23.372;2022-09-17T11:16:03;93709.13;;;21.04;85.81
6136;BME280;24008;42.664;23.372;2022-09-17T11:18:39;93762.72;;;21.45;85.90
6136;BME280;24008;42.664;23.372;2022-09-17T11:21:24;93533.19;;;20.07;85.59
6136;BME280;24008;42.664;23.372;2022-09-17T11:24:15;93541.94;;;20.30;83.07
6136;BME280;24008;42.664;23.372;2022-09-17T11:26:52;93766.78;;;21.81;79.10
6136;BME280;24008;42.664;23.372;2022-09-17T11:29:34;93755.16;;;22.00;78.20
6136;BME280;24008;42.664;23.372;2022-09-17T11:32:12;93793.47;;;22.16;78.99
6136;BME280;24008;42.664;23.372;2022-09-17T11:34:41;93717.25;;;21.76;80.10
6136;BME280;24008;42.664;23.372;2022-09-17T11:37:17;93693.78;;;21.71;80.50
6136;BME280;24008;42.664;23.372;2022-09-17T11:39:50;93770.16;;;22.10;80.42
6136;BME280;24008;42.664;23.372;2022-09-17T11:42:22;93777.75;;;22.11;80.88
6136;BME280;24008;42.664;23.372;2022-09-17T11:44:52;93742.97;;;21.89;81.35
6136;BME280;24008;42.664;23.372;2022-09-17T11:47:24;93634.63;;;20.93;79.90
6136;BME280;24008;42.664;23.372;2022-09-17T11:49:55;93771.25;;;21.97;79.32
6136;BME280;24008;42.664;23.372;2022-09-17T11:52:28;93783.34;;;22.03;79.34
6136;BME280;24008;42.664;23.372;2022-09-17T11:55:01;93721.63;;;21.87;80.32
6136;BME280;24008;42.664;23.372;2022-09-17T11:57:37;93580.41;;;20.96;80.71
6136;BME280;24008;42.664;23.372;2022-09-17T12:00:12;93746.75;;;21.81;80.06
6136;BME280;24008;42.664;23.372;2022-09-17T12:02:46;93750.03;;;21.60;80.50
6136;BME280;24008;42.664;23.372;2022-09-17T12:05:19;93730.28;;;20.96;83.78
6136;BME280;24008;42.664;23.372;2022-09-17T12:07:52;93740.91;;;20.82;86.54
6136;BME280;24008;42.664;23.372;2022-09-17T12:10:40;93678.38;;;20.61;86.65
6136;BME280;24008;42.664;23.372;2022-09-17T12:13:18;93737.03;;;21.20;87.21
6136;BME280;24008;42.664;23.372;2022-09-17T12:15:50;93679.13;;;20.84;87.35
6136;BME280;24008;42.664;23.372;2022-09-17T12:18:36;93729.44;;;21.30;86.58
6136;BME280;24008;42.664;23.372;2022-09-17T12:21:10;93661.03;;;20.90;86.04
6136;BME280;24008;42.664;23.372;2022-09-17T12:23:43;93748.38;;;21.42;84.86
6136;BME280;24008;42.664;23.372;2022-09-17T12:26:23;93740.81;;;21.41;83.84
6136;BME280;24008;42.664;23.372;2022-09-17T12:28:59;93700.19;;;21.11;82.15
6136;BME280;24008;42.664;23.372;2022-09-17T12:31:32;93728.53;;;21.36;82.89
6136;BME280;24008;42.664;23.372;2022-09-17T12:34:18;93734.69;;;21.47;83.83
6136;BME280;24008;42.664;23.372;2022-09-17T12:36:53;93736.59;;;21.51;85.08
6136;BME280;24008;42.664;23.372;2022-09-17T12:39:48;93734.31;;;21.55;84.79
6136;BME280;24008;42.664;23.372;2022-09-17T12:42:39;93726.63;;;21.60;83.33
6136;BME280;24008;42.664;23.372;2022-09-17T12:45:18;93685.31;;;21.47;82.78
6136;BME280;24008;42.664;23.372;2022-09-17T12:48:00;93717.72;;;22.01;82.26
6136;BME280;24008;42.664;23.372;2022-09-17T12:50:38;93637.50;;;21.65;81.57
6136;BME280;24008;42.664;23.372;2022-09-17T12:53:14;93704.81;;;22.06;80.67
6136;BME280;24008;42.664;23.372;2022-09-17T12:55:58;93663.19;;;21.78;80.71
6136;BME280;24008;42.664;23.372;2022-09-17T12:58:44;93657.22;;;21.77;80.80
6136;BME280;24008;42.664;23.372;2022-09-17T13:01:19;93605.50;;;21.47;80.21
6136;BME280;24008;42.664;23.372;2022-09-17T13:03:54;93712.41;;;21.96;80.75
6136;BME280;24008;42.664;23.372;2022-09-17T13:09:36;93694.97;;;21.80;83.19
6136;BME280;24008;42.664;23.372;2022-09-17T13:12:14;93689.84;;;21.68;83.71
6136;BME280;24008;42.664;23.372;2022-09-17T13:14:55;93697.75;;;21.62;83.45
6136;BME280;24008;42.664;23.372;2022-09-17T13:17:28;93708.38;;;21.43;83.21
6136;BME280;24008;42.664;23.372;2022-09-17T13:20:01;93691.34;;;21.36;83.97
6136;BME280;24008;42.664;23.372;2022-09-17T13:22:30;93702.88;;;21.56;84.86
6136;BME280;24008;42.664;23.372;2022-09-17T13:25:04;93680.00;;;21.42;83.14
6136;BME280;24008;42.664;23.372;2022-09-17T13:27:32;93693.22;;;21.40;81.56
6136;BME280;24008;42.664;23.372;2022-09-17T13:30:05;93579.78;;;20.77;82.22
6136;BME280;24008;42.664;23.372;2022-09-17T13:32:49;93672.81;;;21.32;81.36
6136;BME280;24008;42.664;23.372;2022-09-17T13:35:48;93658.09;;;20.98;77.78